createdAt,value
2023-02-28T00:02:20.411Z,1.60
2023-02-28T00:05:02.052Z,1.70
2023-02-28T00:07:37.668Z,1.70
2023-02-28T00:10:16.471Z,1.65
2023-02-28T00:12:53.580Z,1.45
2023-02-28T00:15:28.563Z,1.85
2023-02-28T00:18:04.253Z,1.88
2023-02-28T00:20:39.210Z,1.95
2023-02-28T00:23:14.218Z,1.98
2023-02-28T00:25:49.357Z,1.70
2023-02-28T00:28:25.110Z,2.17
2023-02-28T00:31:01.189Z,1.85
2023-02-28T00:33:37.463Z,2.53
2023-02-28T00:36:12.902Z,1.50
2023-02-28T00:38:47.958Z,1.90
2023-02-28T00:41:22.924Z,1.60
2023-02-28T00:43:57.825Z,1.80
2023-02-28T00:46:33.117Z,1.92
2023-02-28T00:49:08.124Z,1.80
2023-02-28T00:51:44.409Z,2.15
2023-02-28T00:54:20.333Z,2.30
2023-02-28T00:56:56.197Z,1.90
2023-02-28T00:59:31.162Z,2.47
2023-02-28T01:02:06.150Z,2.10
2023-02-28T01:04:41.200Z,2.00
2023-02-28T01:07:16.287Z,2.20
2023-02-28T01:09:51.221Z,2.20
2023-02-28T01:12:26.218Z,2.20
2023-02-28T01:15:01.162Z,2.10
2023-02-28T01:17:37.406Z,1.90
2023-02-28T01:20:12.714Z,3.00
2023-02-28T01:22:47.799Z,2.50
2023-02-28T01:25:22.830Z,2.20
2023-02-28T01:27:57.919Z,2.42
2023-02-28T01:30:35.687Z,2.40
2023-02-28T01:33:10.771Z,2.65
2023-02-28T01:35:45.721Z,2.20
2023-02-28T01:38:23.327Z,2.30
2023-02-28T01:40:58.801Z,3.00
2023-02-28T01:43:57.679Z,2.72
2023-02-28T01:46:36.124Z,2.38
2023-02-28T01:49:17.820Z,3.63
2023-02-28T01:51:56.151Z,2.70
2023-02-28T01:54:34.780Z,2.97
2023-02-28T01:57:17.299Z,2.25
2023-02-28T02:00:08.480Z,2.50
2023-02-28T02:02:52.453Z,3.05
2023-02-28T02:05:32.232Z,2.80
2023-02-28T02:08:13.969Z,2.55
2023-02-28T02:10:57.105Z,2.65
2023-02-28T02:14:26.380Z,2.97
2023-02-28T02:17:21.400Z,2.58
2023-02-28T02:21:02.689Z,2.78
2023-02-28T02:24:02.132Z,2.33
2023-02-28T02:27:02.465Z,3.05
2023-02-28T02:30:18.665Z,3.42
2023-02-28T02:33:41.087Z,3.15
2023-02-28T02:36:32.382Z,2.50
2023-02-28T02:39:39.157Z,3.05
2023-02-28T02:42:23.518Z,3.85
2023-02-28T02:45:08.452Z,2.85
2023-02-28T02:47:44.998Z,2.63
2023-02-28T02:50:31.603Z,2.67
2023-02-28T02:53:09.993Z,3.35
2023-02-28T02:55:53.983Z,2.97
2023-02-28T02:58:42.993Z,3.25
2023-02-28T03:01:28.887Z,3.17
2023-02-28T03:04:14.201Z,3.50
2023-02-28T03:06:55.700Z,3.13
2023-02-28T03:09:34.354Z,2.67
2023-02-28T03:12:14.112Z,3.10
2023-02-28T03:15:14.524Z,3.20
2023-02-28T03:18:26.161Z,4.38
2023-02-28T03:21:20.951Z,3.33
2023-02-28T03:24:19.762Z,3.22
2023-02-28T03:27:16.944Z,3.38
2023-02-28T03:30:16.873Z,3.50
2023-02-28T03:33:13.743Z,3.85
2023-02-28T03:36:07.500Z,3.22
2023-02-28T03:38:54.073Z,3.50
2023-02-28T03:41:37.570Z,3.78
2023-02-28T03:44:26.042Z,3.53
2023-02-28T03:47:07.822Z,3.50
2023-02-28T03:50:11.843Z,3.42
2023-02-28T03:53:25.988Z,3.55
2023-02-28T03:56:10.639Z,3.60
2023-02-28T03:59:14.889Z,3.50
2023-02-28T04:01:51.203Z,3.45
2023-02-28T04:04:26.369Z,3.58
2023-02-28T04:07:08.445Z,4.65
2023-02-28T04:09:44.045Z,3.15
2023-02-28T04:12:19.139Z,3.55
2023-02-28T04:14:54.080Z,4.03
2023-02-28T04:17:28.967Z,3.38
2023-02-28T04:20:10.132Z,4.03
2023-02-28T04:22:45.154Z,3.38
2023-02-28T04:25:20.106Z,4.05
2023-02-28T04:27:55.038Z,3.90
2023-02-28T04:30:30.665Z,3.85
2023-02-28T04:33:05.700Z,3.55
2023-02-28T04:35:40.691Z,3.75
2023-02-28T04:38:15.663Z,4.07
2023-02-28T04:40:50.583Z,4.70
2023-02-28T04:43:27.391Z,4.00
2023-02-28T04:46:05.078Z,3.60
2023-02-28T04:48:41.546Z,3.42
2023-02-28T04:51:20.116Z,4.10
2023-02-28T04:53:55.636Z,4.07
2023-02-28T04:56:30.604Z,3.38
2023-02-28T04:59:05.665Z,4.97
2023-02-28T05:01:41.879Z,3.92
2023-02-28T05:04:17.389Z,3.60
2023-02-28T05:06:52.374Z,4.25
2023-02-28T05:09:28.066Z,3.95
2023-02-28T05:12:02.972Z,4.20
2023-02-28T05:14:37.955Z,4.20
2023-02-28T05:17:12.891Z,4.10
2023-02-28T05:19:49.636Z,4.75
2023-02-28T05:22:25.997Z,4.82
2023-02-28T05:25:01.028Z,3.88
2023-02-28T05:27:35.943Z,4.00
2023-02-28T05:30:11.985Z,3.90
2023-02-28T05:32:52.237Z,3.75
2023-02-28T05:35:27.607Z,4.45
2023-02-28T05:38:03.233Z,3.35
2023-02-28T05:40:41.414Z,4.20
2023-02-28T05:43:16.422Z,4.53
2023-02-28T05:45:51.435Z,3.75
2023-02-28T05:48:27.063Z,4.43
2023-02-28T05:51:03.513Z,4.27
2023-02-28T05:53:38.536Z,4.47
2023-02-28T05:56:13.592Z,4.85
2023-02-28T05:58:48.570Z,4.35
2023-02-28T06:01:42.059Z,4.22
2023-02-28T06:04:30.963Z,4.43
2023-02-28T06:07:09.763Z,4.70
2023-02-28T06:09:44.670Z,4.25
2023-02-28T06:12:19.908Z,4.45
2023-02-28T06:14:55.096Z,4.45
2023-02-28T06:17:30.067Z,4.63
2023-02-28T06:20:06.554Z,4.90
2023-02-28T06:22:41.598Z,5.40
2023-02-28T06:25:16.877Z,4.50
2023-02-28T06:27:51.843Z,4.78
2023-02-28T06:30:28.020Z,4.72
2023-02-28T06:33:03.149Z,5.15
2023-02-28T06:35:40.143Z,5.03
2023-02-28T06:38:16.284Z,5.18
2023-02-28T06:40:59.917Z,5.15
2023-02-28T06:43:41.824Z,4.78
2023-02-28T06:46:17.902Z,4.95
2023-02-28T06:48:53.912Z,5.18
2023-02-28T06:51:29.165Z,4.40
2023-02-28T06:54:05.829Z,4.60
2023-02-28T06:56:40.923Z,4.77
2023-02-28T06:59:16.081Z,5.20
2023-02-28T07:01:51.363Z,6.13
2023-02-28T07:04:26.646Z,5.70
2023-02-28T07:07:01.723Z,4.47
2023-02-28T07:09:36.840Z,4.87
2023-02-28T07:12:11.847Z,4.88
2023-02-28T07:14:46.854Z,5.00
2023-02-28T07:17:21.859Z,4.87
2023-02-28T07:19:57.104Z,5.18
2023-02-28T07:22:32.026Z,5.20
2023-02-28T07:25:07.500Z,5.20
2023-02-28T07:27:42.487Z,5.90
2023-02-28T07:30:18.751Z,4.87
2023-02-28T07:32:57.068Z,5.90
2023-02-28T07:35:32.602Z,5.37
2023-02-28T07:38:08.590Z,5.00
2023-02-28T07:40:43.559Z,5.22
2023-02-28T07:43:19.557Z,5.70
2023-02-28T07:45:54.504Z,5.90
2023-02-28T07:48:29.477Z,5.20
2023-02-28T07:51:04.959Z,6.38
2023-02-28T07:53:39.845Z,5.40
2023-02-28T07:56:14.820Z,5.70
2023-02-28T07:58:49.798Z,5.65
2023-02-28T08:01:25.283Z,5.03
2023-02-28T08:04:00.556Z,5.43
2023-02-28T08:06:36.156Z,5.43
2023-02-28T08:09:11.897Z,5.03
2023-02-28T08:11:46.855Z,5.10
2023-02-28T08:14:21.876Z,5.47
2023-02-28T08:16:56.878Z,5.60
2023-02-28T08:19:32.245Z,5.07
2023-02-28T08:22:07.347Z,6.10
2023-02-28T08:24:43.802Z,6.10
2023-02-28T08:27:18.900Z,5.77
2023-02-28T08:29:53.920Z,6.00
2023-02-28T08:32:30.355Z,5.70
2023-02-28T08:35:06.458Z,6.07
2023-02-28T08:37:41.493Z,5.80
2023-02-28T08:40:19.809Z,5.47
2023-02-28T08:42:54.789Z,5.53
2023-02-28T08:45:29.751Z,5.93
2023-02-28T08:48:05.078Z,5.93
2023-02-28T08:50:40.244Z,6.33
2023-02-28T08:53:15.302Z,5.77
2023-02-28T08:56:01.405Z,6.50
2023-02-28T08:58:37.308Z,7.07
2023-02-28T09:01:28.567Z,6.57
2023-02-28T09:04:03.762Z,6.07
2023-02-28T09:06:41.641Z,6.10
2023-02-28T09:09:17.303Z,6.47
2023-02-28T09:11:52.164Z,6.17
2023-02-28T09:14:27.335Z,6.40
2023-02-28T09:17:02.314Z,7.57
2023-02-28T09:19:38.009Z,6.60
2023-02-28T09:22:12.957Z,6.40
2023-02-28T09:24:47.922Z,6.23
2023-02-28T09:27:22.805Z,6.80
2023-02-28T09:29:57.693Z,5.80
2023-02-28T09:32:33.199Z,7.00
2023-02-28T09:35:14.182Z,7.17
2023-02-28T09:37:52.552Z,6.10
2023-02-28T09:40:28.055Z,7.40
2023-02-28T09:43:03.199Z,6.60
2023-02-28T09:45:42.440Z,6.77
2023-02-28T09:48:27.869Z,7.20
2023-02-28T09:51:17.181Z,6.90
2023-02-28T09:53:56.680Z,7.50
2023-02-28T09:56:42.802Z,7.23
2023-02-28T09:59:59.672Z,7.20
2023-02-28T10:03:09.826Z,6.80
2023-02-28T10:06:05.876Z,6.23
2023-02-28T10:09:07.028Z,7.67
2023-02-28T10:11:43.832Z,6.80
2023-02-28T10:14:24.490Z,7.53
2023-02-28T10:17:09.788Z,8.30
2023-02-28T10:20:21.056Z,6.47
2023-02-28T10:23:13.333Z,6.70
2023-02-28T10:26:02.724Z,7.90
2023-02-28T10:28:38.663Z,6.87
2023-02-28T10:31:20.004Z,7.47
2023-02-28T10:33:55.134Z,7.50
2023-02-28T10:36:30.415Z,7.80
2023-02-28T10:39:39.311Z,7.20
2023-02-28T10:42:30.132Z,7.77
2023-02-28T10:45:14.552Z,7.43
2023-02-28T10:48:06.714Z,6.93
2023-02-28T10:50:54.422Z,7.50
2023-02-28T10:53:44.815Z,7.43
2023-02-28T10:56:31.943Z,6.87
2023-02-28T10:59:16.230Z,7.53
2023-02-28T11:01:53.882Z,6.70
2023-02-28T11:04:33.558Z,8.07
2023-02-28T11:07:37.398Z,6.50
2023-02-28T11:10:23.275Z,7.77
2023-02-28T11:13:00.979Z,6.43
2023-02-28T11:15:36.626Z,6.73
2023-02-28T11:18:14.708Z,6.67
2023-02-28T11:20:55.495Z,7.33
2023-02-28T11:23:34.624Z,6.90
2023-02-28T11:26:12.237Z,7.80
2023-02-28T11:28:47.376Z,7.53
2023-02-28T11:31:23.495Z,8.37
2023-02-28T11:33:58.587Z,7.60
2023-02-28T11:36:34.112Z,7.50
2023-02-28T11:39:13.054Z,7.53
2023-02-28T11:42:19.774Z,6.97
2023-02-28T11:45:36.724Z,7.20
2023-02-28T11:48:34.489Z,7.30
2023-02-28T11:51:49.122Z,7.17
2023-02-28T11:54:48.117Z,7.10
2023-02-28T11:58:08.586Z,7.67
2023-02-28T12:01:17.883Z,7.70
2023-02-28T12:04:18.831Z,6.63
2023-02-28T12:07:21.306Z,6.67
2023-02-28T12:10:27.564Z,8.17
2023-02-28T12:13:39.982Z,6.93
2023-02-28T12:16:34.286Z,7.70
2023-02-28T12:19:24.120Z,6.73
2023-02-28T12:22:24.641Z,7.17
2023-02-28T12:25:11.126Z,6.70
2023-02-28T12:27:49.477Z,7.13
2023-02-28T12:30:33.333Z,6.67
2023-02-28T12:33:15.724Z,6.93
2023-02-28T12:36:03.457Z,7.27
2023-02-28T12:39:05.047Z,7.07
2023-02-28T12:41:55.522Z,6.43
2023-02-28T12:44:55.727Z,7.47
2023-02-28T12:47:37.474Z,6.50
2023-02-28T12:50:13.623Z,6.37
2023-02-28T12:53:09.708Z,7.20
2023-02-28T12:55:54.443Z,7.17
2023-02-28T12:58:39.085Z,6.90
2023-02-28T13:01:58.726Z,6.87
2023-02-28T13:05:05.640Z,7.33
2023-02-28T13:08:40.128Z,7.10
2023-02-28T13:11:47.183Z,6.70
2023-02-28T13:14:33.483Z,6.77
2023-02-28T13:17:09.833Z,7.00
2023-02-28T13:20:00.608Z,6.53
2023-02-28T13:22:45.203Z,8.33
2023-02-28T13:25:23.167Z,6.70
2023-02-28T13:28:01.746Z,6.63
2023-02-28T13:31:01.291Z,6.97
2023-02-28T13:33:51.101Z,7.77
2023-02-28T13:36:32.572Z,7.00
2023-02-28T13:39:36.368Z,7.20
2023-02-28T13:42:38.324Z,6.70
2023-02-28T13:45:13.273Z,7.17
2023-02-28T13:48:04.257Z,7.43
2023-02-28T13:50:41.204Z,7.57
2023-02-28T13:53:16.088Z,6.87
2023-02-28T13:56:19.227Z,7.70
2023-02-28T14:00:07.164Z,6.60
2023-02-28T14:03:32.411Z,6.90
2023-02-28T14:06:28.363Z,6.80
2023-02-28T14:09:13.188Z,8.13
2023-02-28T14:11:48.318Z,7.80
2023-02-28T14:14:38.489Z,7.20
2023-02-28T14:17:18.191Z,6.80
2023-02-28T14:19:53.853Z,7.20
2023-02-28T14:23:13.012Z,6.57
2023-02-28T14:26:07.840Z,7.60
2023-02-28T14:29:11.088Z,8.00
2023-02-28T14:32:12.357Z,5.87
2023-02-28T14:37:42.608Z,7.00
2023-02-28T14:40:32.127Z,7.10
2023-02-28T14:43:25.639Z,6.57
2023-02-28T14:46:06.867Z,7.23
2023-02-28T14:48:41.917Z,6.60
2023-02-28T14:51:24.782Z,8.23
2023-02-28T14:54:02.919Z,7.10
2023-02-28T14:56:40.196Z,6.33
2023-02-28T14:59:35.118Z,7.10
2023-02-28T15:02:22.991Z,7.80
2023-02-28T15:05:32.882Z,7.93
2023-02-28T15:08:17.389Z,7.40
2023-02-28T15:11:05.015Z,6.33
2023-02-28T15:13:49.838Z,7.20
2023-02-28T15:16:29.855Z,8.20
2023-02-28T15:19:19.501Z,7.10
2023-02-28T15:22:19.052Z,7.10
2023-02-28T15:24:54.556Z,7.80
2023-02-28T15:27:33.208Z,7.90
2023-02-28T15:30:35.728Z,6.87
2023-02-28T15:33:24.437Z,6.70
2023-02-28T15:36:16.869Z,7.47
2023-02-28T15:38:54.209Z,8.47
2023-02-28T15:41:38.902Z,7.60
2023-02-28T15:44:30.744Z,8.00
2023-02-28T15:47:17.502Z,8.73
2023-02-28T15:49:58.149Z,7.33
2023-02-28T15:52:44.876Z,7.70
2023-02-28T15:55:28.157Z,8.47
2023-02-28T15:58:03.620Z,8.20
2023-02-28T16:00:39.905Z,7.23
2023-02-28T16:03:34.065Z,7.83
2023-02-28T16:06:39.186Z,6.63
2023-02-28T16:09:17.902Z,8.67
2023-02-28T16:11:56.461Z,7.20
2023-02-28T16:14:32.163Z,7.27
2023-02-28T16:17:40.374Z,7.50
2023-02-28T16:20:29.977Z,7.10
2023-02-28T16:23:05.171Z,6.83
2023-02-28T16:25:43.610Z,7.07
2023-02-28T16:28:34.228Z,6.87
2023-02-28T16:31:15.537Z,7.50
2023-02-28T16:33:50.520Z,7.30
2023-02-28T16:36:28.814Z,7.90
2023-02-28T16:39:04.458Z,7.50
2023-02-28T16:41:44.633Z,6.73
2023-02-28T16:44:30.348Z,7.83
2023-02-28T16:47:05.653Z,8.17
2023-02-28T16:49:42.905Z,7.40
2023-02-28T16:52:18.380Z,7.40
2023-02-28T16:54:55.423Z,8.47
2023-02-28T16:57:31.433Z,7.93
2023-02-28T17:00:11.513Z,8.47
2023-02-28T17:02:48.612Z,8.03
2023-02-28T17:05:24.388Z,7.97
2023-02-28T17:07:59.401Z,8.17
2023-02-28T17:10:34.515Z,8.53
2023-02-28T17:13:15.237Z,9.33
2023-02-28T17:15:50.601Z,8.40
2023-02-28T17:18:25.561Z,9.20
2023-02-28T17:21:02.010Z,9.30
2023-02-28T17:23:36.864Z,7.90
2023-02-28T17:26:23.186Z,9.57
2023-02-28T17:28:59.122Z,9.40
2023-02-28T17:31:40.423Z,9.07
2023-02-28T17:34:20.727Z,9.07
2023-02-28T17:36:55.774Z,9.00
2023-02-28T17:39:31.861Z,10.17
2023-02-28T17:42:06.723Z,9.20
2023-02-28T17:44:41.678Z,8.90
2023-02-28T17:47:16.647Z,8.80
2023-02-28T17:49:51.586Z,8.37
2023-02-28T17:52:27.728Z,8.40
2023-02-28T17:55:02.593Z,8.67
2023-02-28T17:57:38.120Z,8.80
2023-02-28T18:00:18.301Z,8.33
2023-02-28T18:02:53.213Z,9.50
2023-02-28T18:05:28.180Z,8.50
2023-02-28T18:08:03.513Z,9.10
2023-02-28T18:10:38.409Z,8.90
2023-02-28T18:13:13.578Z,9.40
2023-02-28T18:15:48.606Z,8.53
2023-02-28T18:18:23.584Z,8.53
2023-02-28T18:20:58.506Z,9.33
2023-02-28T18:23:33.449Z,9.17
2023-02-28T18:26:09.104Z,9.60
2023-02-28T18:28:46.166Z,8.70
2023-02-28T18:31:21.369Z,8.57
2023-02-28T18:33:56.302Z,9.13
2023-02-28T18:36:31.532Z,9.80
2023-02-28T18:39:06.762Z,9.70
2023-02-28T18:41:42.771Z,9.57
2023-02-28T18:44:20.248Z,10.20
2023-02-28T18:46:56.058Z,9.53
2023-02-28T18:49:35.702Z,8.60
2023-02-28T18:52:12.497Z,10.63
2023-02-28T18:54:47.498Z,9.80
2023-02-28T18:57:22.409Z,9.30
2023-02-28T18:59:57.331Z,9.60
2023-02-28T19:02:32.241Z,8.83
2023-02-28T19:05:07.857Z,10.83
2023-02-28T19:07:43.160Z,10.17
2023-02-28T19:10:18.715Z,9.77
2023-02-28T19:12:53.647Z,10.40
2023-02-28T19:15:28.602Z,10.40
2023-02-28T19:18:03.656Z,10.97
2023-02-28T19:20:38.581Z,9.50
2023-02-28T19:23:15.369Z,10.00
2023-02-28T19:25:50.410Z,9.93
2023-02-28T19:28:30.752Z,11.30
2023-02-28T19:31:07.284Z,10.83
2023-02-28T19:33:42.642Z,10.27
2023-02-28T19:36:17.636Z,10.00
2023-02-28T19:38:52.558Z,10.77
2023-02-28T19:41:27.855Z,11.30
2023-02-28T19:44:03.194Z,11.00
2023-02-28T19:46:38.606Z,10.73
2023-02-28T19:49:13.500Z,9.83
2023-02-28T19:51:48.490Z,11.20
2023-02-28T19:54:24.588Z,11.20
2023-02-28T19:56:59.579Z,11.73
2023-02-28T19:59:39.440Z,10.60
2023-02-28T20:02:18.840Z,10.37
2023-02-28T20:04:54.968Z,10.10
2023-02-28T20:07:31.948Z,10.03
2023-02-28T20:10:07.805Z,10.70
2023-02-28T20:12:43.614Z,11.17
2023-02-28T20:15:18.585Z,11.80
2023-02-28T20:17:53.727Z,11.40
2023-02-28T20:20:28.630Z,10.90
2023-02-28T20:23:05.306Z,11.73
2023-02-28T20:25:40.874Z,11.57
2023-02-28T20:28:15.741Z,12.10
2023-02-28T20:30:50.776Z,11.50
2023-02-28T20:33:25.793Z,12.10
2023-02-28T20:36:02.338Z,11.37
2023-02-28T20:38:38.508Z,11.13
2023-02-28T20:41:14.422Z,11.50
2023-02-28T20:43:59.436Z,11.33
2023-02-28T20:46:35.532Z,10.33
2023-02-28T20:49:11.145Z,10.57
2023-02-28T20:51:46.124Z,10.63
2023-02-28T20:54:21.858Z,10.20
2023-02-28T20:56:57.565Z,10.97
2023-02-28T20:59:32.526Z,10.77
2023-02-28T21:02:09.273Z,11.70
2023-02-28T21:04:44.348Z,10.77
2023-02-28T21:07:19.496Z,11.00
2023-02-28T21:09:55.731Z,11.87
2023-02-28T21:12:31.357Z,12.00
2023-02-28T21:15:07.078Z,10.90
2023-02-28T21:17:42.067Z,11.63
2023-02-28T21:20:21.921Z,11.90
2023-02-28T21:22:56.826Z,11.73
2023-02-28T21:25:33.661Z,12.00
2023-02-28T21:28:08.654Z,11.50
2023-02-28T21:30:43.598Z,12.00
2023-02-28T21:33:18.484Z,11.20
2023-02-28T21:36:07.816Z,10.43
2023-02-28T21:38:44.470Z,12.30
2023-02-28T21:41:21.835Z,12.20
2023-02-28T21:43:57.164Z,12.43
2023-02-28T21:46:32.468Z,12.70
2023-02-28T21:49:07.532Z,13.70
2023-02-28T21:51:43.146Z,12.37
2023-02-28T21:54:18.267Z,13.60
2023-02-28T21:56:55.347Z,13.52
2023-02-28T21:59:30.556Z,13.68
2023-02-28T22:02:05.600Z,12.73
2023-02-28T22:04:40.604Z,13.25
2023-02-28T22:07:18.144Z,12.90
2023-02-28T22:09:53.071Z,14.20
2023-02-28T22:12:30.813Z,13.37
2023-02-28T22:15:06.562Z,13.40
2023-02-28T22:17:41.548Z,13.68
2023-02-28T22:20:16.681Z,13.80
2023-02-28T22:22:51.637Z,13.20
2023-02-28T22:25:26.596Z,12.35
2023-02-28T22:28:01.497Z,13.00
2023-02-28T22:30:36.471Z,12.45
2023-02-28T22:33:11.655Z,12.82
2023-02-28T22:35:46.816Z,12.13
2023-02-28T22:38:22.658Z,12.63
2023-02-28T22:40:57.763Z,12.13
2023-02-28T22:43:33.644Z,13.95
2023-02-28T22:46:12.438Z,13.53
2023-02-28T22:48:50.370Z,13.60
2023-02-28T22:51:26.515Z,11.20
2023-02-28T22:54:02.054Z,12.73
2023-02-28T22:56:37.141Z,11.60
2023-02-28T22:59:14.910Z,12.52
2023-02-28T23:01:49.845Z,11.93
2023-02-28T23:04:26.896Z,11.35
2023-02-28T23:07:01.887Z,12.35
2023-02-28T23:09:37.840Z,11.35
2023-02-28T23:12:12.716Z,12.45
2023-02-28T23:14:47.579Z,12.20
2023-02-28T23:17:22.483Z,11.85
2023-02-28T23:19:57.370Z,11.48
2023-02-28T23:22:32.291Z,11.98
2023-02-28T23:25:07.819Z,12.10
2023-02-28T23:27:42.718Z,14.07
2023-02-28T23:30:18.084Z,12.80
2023-02-28T23:32:53.005Z,12.13
2023-02-28T23:35:27.987Z,12.07
2023-02-28T23:38:02.982Z,13.85
2023-02-28T23:40:40.956Z,15.48
2023-02-28T23:43:15.984Z,12.88
2023-02-28T23:45:57.792Z,12.00
2023-02-28T23:48:33.087Z,12.98
2023-02-28T23:51:11.938Z,14.15
2023-02-28T23:53:50.428Z,12.90
2023-02-28T23:56:25.620Z,12.30
2023-02-28T23:59:01.099Z,12.93
